Flight Track Log - Related Links

Times and Time Zones

All times are in EST time to prevent confusion due to time zone crossing. See the SWA4151 flight status page for this flight to view local times or setup timezone preferences in your user account.

Time Position Orientation Groundspeed Altitude Reporting Facility
EST Latitude Longitude Course Direction KTS MPH feet Rate Location/Type
Mon 05:59:45 PM 32.7764 -117.2836 304° West 201 231 3,900  Level Los Angeles Center
Mon 06:00:48 PM 32.8286 -117.3850 302° West 271 312 8,200 3,504 Climbing Los Angeles Center
Mon 06:01:50 PM 32.8714 -117.4653 302° West 284 327 11,200 3,000 Climbing Los Angeles Center
Mon 06:02:52 PM 32.9489 -117.5383 322° Northwest 347 399 14,400 3,145 Climbing Los Angeles Center
Mon 06:03:54 PM 33.0347 -117.6067 326° Northwest 368 423 17,700 3,194 Climbing Los Angeles Center
Mon 06:04:00 PM 33.3438 -117.6064 North  Level Estimated
Mon 06:04:56 PM 33.0997 -117.7100 307° West 385 443 21,000  Level Los Angeles Center
Mon 06:05:58 PM 33.1569 -117.7892 311° West 390 449 23,200 2,758 Climbing Los Angeles Center
Mon 06:07:00 PM 33.2919 -117.8981 326° Northwest 419 482 26,700 2,710 Climbing Los Angeles Center
Mon 06:08:02 PM 33.3900 -117.9792 325° Northwest 426 490 28,800 2,304 Climbing Los Angeles Center
Mon 06:09:05 PM 33.4897 -118.0614 325° Northwest 432 497 31,500 2,256 Climbing Los Angeles Center
Mon 06:10:07 PM 33.5844 -118.1403 325° Northwest 420 483 33,500 1,984 Climbing Los Angeles Center
Mon 06:11:09 PM 33.6794 -118.2189 325° Northwest 417 480 35,600 1,887 Climbing Los Angeles Center
Mon 06:12:11 PM 33.7867 -118.3106 325° Northwest 419 482 37,400 1,059 Climbing Los Angeles Center
Mon 06:13:25 PM 33.8775 -118.3856 326° Northwest 404 465 38,000 263 Climbing Los Angeles Center
Mon 06:14:28 PM 33.9919 -118.4594 332° Northwest 394 453 38,000  Level Los Angeles Center
Mon 06:15:30 PM 34.1147 -118.5153 339° North 395 455 38,000  Level Los Angeles Center
Mon 06:16:31 PM 34.1967 -118.5525 339° North 394 453 38,000  Level Los Angeles Center
Mon 06:17:34 PM 34.3181 -118.6081 339° North 390 449 38,000  Level Los Angeles Center
Mon 06:18:36 PM 34.4208 -118.6539 340° North 393 452 38,000  Level Los Angeles Center
Mon 06:19:38 PM 34.5225 -118.7017 339° North 393 452 38,000  Level Los Angeles Center
Mon 06:20:40 PM 34.6253 -118.7481 340° North 395 455 38,000  Level Los Angeles Center
Mon 06:21:42 PM 34.7486 -118.8047 339° North 396 456 38,000  Level Los Angeles Center
Mon 06:22:45 PM 34.8528 -118.8536 339° North 401 461 38,000  Level Los Angeles Center
Mon 06:23:47 PM 34.9589 -118.9014 340° North 398 458 38,000  Level Los Angeles Center
Mon 06:24:49 PM 35.0617 -118.9492 339° North 397 457 38,000  Level Los Angeles Center
Mon 06:25:51 PM 35.1650 -118.9964 340° North 400 460 38,000  Level Los Angeles Center
Mon 06:26:53 PM 35.2703 -119.0447 339° North 405 466 38,000  Level Los Angeles Center
Mon 06:27:55 PM 35.3925 -119.1031 339° North 396 456 38,000  Level Los Angeles Center
Mon 06:28:57 PM 35.4956 -119.1503 340° North 397 457 38,000  Level Los Angeles Center
Mon 06:29:59 PM 35.5983 -119.1992 339° North 397 457 38,000  Level Los Angeles Center
Mon 06:31:02 PM 35.7008 -119.2472 339° North 397 457 38,000  Level Los Angeles Center
Mon 06:32:04 PM 35.8025 -119.2956 339° North 395 455 38,000  Level Los Angeles Center
Mon 06:33:00 PM 35.9033 -119.3439 339° North 395 455 38,000  Level Oakland Center
Mon 06:34:01 PM 36.0050 -119.3928 339° North 394 453 38,000  Level Oakland Center
Mon 06:35:03 PM 36.1031 -119.4386 339° North 386 444 38,000  Level Oakland Center
Mon 06:36:04 PM 36.2019 -119.4928 336° Northwest 388 447 38,000  Level Oakland Center
Mon 06:37:05 PM 36.3147 -119.5725 330° Northwest 390 449 38,000  Level Oakland Center
Mon 06:38:06 PM 36.4086 -119.6381 331° Northwest 389 448 38,000  Level Oakland Center
Mon 06:39:08 PM 36.5050 -119.7036 331° Northwest 393 452 38,000 -98 Level Oakland Center
Mon 06:40:09 PM 36.6003 -119.7717 330° Northwest 396 456 37,800 -590 Descending Oakland Center
Mon 06:41:10 PM 36.6969 -119.8369 332° Northwest 396 456 36,800 -885 Descending Oakland Center
Mon 06:42:11 PM 36.7922 -119.9061 330° Northwest 397 457 36,000 -390 Descending Oakland Center
Mon 06:43:13 PM 36.8864 -119.9714 331° Northwest 390 449 36,000 -1,024 Level Oakland Center
Mon 06:44:14 PM 36.9767 -120.0358 330° Northwest 378 435 33,900 -1,770 Descending Oakland Center
Mon 06:45:15 PM 37.0636 -120.0958 331° Northwest 359 413 32,400 -2,016 Descending Oakland Center
Mon 06:46:16 PM 37.1592 -120.1642 330° Northwest 364 419 29,800 -2,293 Descending Oakland Center
Mon 06:47:18 PM 37.2486 -120.2267 331° Northwest 368 423 27,700 -2,049 Descending Oakland Center
Mon 06:48:19 PM 37.3394 -120.2914 330° Northwest 373 429 25,600 -1,869 Descending Oakland Center
Mon 06:49:20 PM 37.4272 -120.3550 330° Northwest 366 421 23,900 -1,474 Descending Oakland Center
Mon 06:50:13 PM 37.5000 -120.4333 320° Northwest 339 390 22,800 -1,009 Descending Northern Cal TRACON
Mon 06:51:13 PM 37.5833 -120.5000 328° Northwest 338 389 22,000 -800 Descending Northern Cal TRACON
Mon 06:52:13 PM 37.6500 -120.5833 315° West 338 389 21,200 -900 Descending Northern Cal TRACON
Mon 06:53:13 PM 37.7333 -120.6500 328° Northwest 338 389 20,200 -947 Descending Northern Cal TRACON
Mon 06:54:26 PM 37.8100 -120.7386 318° Northwest 335 386 19,100 -940 Descending Oakland Center
Mon 06:55:27 PM 37.8822 -120.8111 322° Northwest 333 383 18,100 -1,366 Descending Oakland Center
Mon 06:56:29 PM 37.9447 -120.8936 314° West 324 373 16,300 -1,951 Descending Oakland Center
Mon 06:57:30 PM 38.0106 -120.9789 314° West 336 387 14,100 -1,918 Descending Oakland Center
Mon 06:58:31 PM 38.0747 -121.0636 314° West 334 384 12,400 -2,039 Descending Oakland Center
Mon 06:59:13 PM 38.1333 -121.1333 317° Northwest 326 375 10,600 -1,588 Descending Northern Cal TRACON
Mon 07:00:13 PM 38.1833 -121.2000 314° West 294 338 9,700 -1,150 Descending Northern Cal TRACON
Mon 07:01:13 PM 38.2333 -121.2833 307° West 278 320 8,300 -1,500 Descending Northern Cal TRACON
Mon 07:02:13 PM 38.3000 -121.3500 322° Northwest 279 321 6,700 -1,632 Descending Northern Cal TRACON
Mon 07:03:07 PM 38.3500 -121.4167 314° West 277 319 5,200 -1,579 Descending Northern Cal TRACON
Mon 07:04:07 PM 38.4167 -121.4667 330° Northwest 276 318 3,700 -1,100 Descending Northern Cal TRACON
Mon 07:05:07 PM 38.4667 -121.5000 332° Northwest 259 298 3,000 -700 Descending Northern Cal TRACON
Mon 07:06:07 PM 38.5333 -121.5500 330° Northwest 228 262 2,300 -700 Descending Northern Cal TRACON
Mon 07:07:07 PM 38.5833 -121.5833 332° Northwest 215 247 1,600 -500 Descending Northern Cal TRACON
Mon 07:08:07 PM 38.6333 -121.6000 345° North 162 186 1,300 -550 Descending Northern Cal TRACON
Mon 07:09:07 PM 38.6667 -121.6000 360° North 134 154 500 -800 Descending Northern Cal TRACON
Mon 07:11:00 PM 38.6833 -121.5833 46° Northeast  Level FlightAware Approximate
Mon 07:18:00 PM 38.6954 -121.5908 46° Northeast  Level Estimated

Login

Don't have an account? Register now (free) for customized features, flight alerts, and more!